sensor_id;sensor_type;location;lat;lon;timestamp;P1;durP1;ratioP1;P2;durP2;ratioP2
35969;SDS011;22448;51.298;6.430;2023-06-14T00:02:03;11.50;;;7.50;;
35969;SDS011;22448;51.298;6.430;2023-06-14T00:04:31;16.83;;;7.82;;
35969;SDS011;22448;51.298;6.430;2023-06-14T00:06:58;12.95;;;6.90;;
35969;SDS011;22448;51.298;6.430;2023-06-14T00:09:25;12.80;;;7.18;;
35969;SDS011;22448;51.298;6.430;2023-06-14T00:11:53;10.23;;;6.97;;
35969;SDS011;22448;51.298;6.430;2023-06-14T00:14:20;12.57;;;6.68;;
35969;SDS011;22448;51.298;6.430;2023-06-14T00:16:47;13.75;;;6.78;;
35969;SDS011;22448;51.298;6.430;2023-06-14T00:19:14;16.67;;;7.68;;
35969;SDS011;22448;51.298;6.430;2023-06-14T00:21:43;11.77;;;6.47;;
35969;SDS011;22448;51.298;6.430;2023-06-14T00:24:10;13.27;;;7.38;;
35969;SDS011;22448;51.298;6.430;2023-06-14T00:26:37;18.80;;;7.75;;
35969;SDS011;22448;51.298;6.430;2023-06-14T00:29:04;18.00;;;7.15;;
35969;SDS011;22448;51.298;6.430;2023-06-14T00:31:31;18.55;;;7.82;;
35969;SDS011;22448;51.298;6.430;2023-06-14T00:33:58;13.27;;;8.02;;
35969;SDS011;22448;51.298;6.430;2023-06-14T00:36:25;13.05;;;7.55;;
35969;SDS011;22448;51.298;6.430;2023-06-14T00:38:52;13.05;;;7.15;;
35969;SDS011;22448;51.298;6.430;2023-06-14T00:41:20;12.30;;;7.45;;
35969;SDS011;22448;51.298;6.430;2023-06-14T00:43:47;16.13;;;7.72;;
35969;SDS011;22448;51.298;6.430;2023-06-14T00:46:14;15.85;;;7.68;;
35969;SDS011;22448;51.298;6.430;2023-06-14T00:48:41;19.20;;;7.93;;
35969;SDS011;22448;51.298;6.430;2023-06-14T00:51:09;15.88;;;7.53;;
35969;SDS011;22448;51.298;6.430;2023-06-14T00:53:37;19.88;;;8.73;;
35969;SDS011;22448;51.298;6.430;2023-06-14T00:56:06;14.18;;;8.45;;
35969;SDS011;22448;51.298;6.430;2023-06-14T00:58:33;17.58;;;7.95;;
35969;SDS011;22448;51.298;6.430;2023-06-14T01:01:00;15.70;;;8.43;;
35969;SDS011;22448;51.298;6.430;2023-06-14T01:03:28;14.27;;;7.60;;
35969;SDS011;22448;51.298;6.430;2023-06-14T01:05:59;13.90;;;7.93;;
35969;SDS011;22448;51.298;6.430;2023-06-14T01:08:45;15.88;;;7.25;;
35969;SDS011;22448;51.298;6.430;2023-06-14T01:11:22;14.13;;;7.20;;
35969;SDS011;22448;51.298;6.430;2023-06-14T01:13:54;14.65;;;7.43;;
35969;SDS011;22448;51.298;6.430;2023-06-14T01:16:23;17.13;;;8.00;;
35969;SDS011;22448;51.298;6.430;2023-06-14T01:18:51;12.82;;;7.15;;
35969;SDS011;22448;51.298;6.430;2023-06-14T01:21:23;14.88;;;6.60;;
35969;SDS011;22448;51.298;6.430;2023-06-14T01:23:51;13.32;;;7.10;;
35969;SDS011;22448;51.298;6.430;2023-06-14T01:28:53;11.63;;;7.00;;
35969;SDS011;22448;51.298;6.430;2023-06-14T01:31:24;14.55;;;6.47;;
35969;SDS011;22448;51.298;6.430;2023-06-14T01:33:52;11.10;;;7.40;;
35969;SDS011;22448;51.298;6.430;2023-06-14T01:36:22;10.68;;;6.55;;
35969;SDS011;22448;51.298;6.430;2023-06-14T01:38:52;19.35;;;6.97;;
35969;SDS011;22448;51.298;6.430;2023-06-14T01:41:20;12.40;;;6.72;;
35969;SDS011;22448;51.298;6.430;2023-06-14T01:43:47;13.40;;;7.15;;
35969;SDS011;22448;51.298;6.430;2023-06-14T01:46:16;10.48;;;6.57;;
35969;SDS011;22448;51.298;6.430;2023-06-14T01:48:45;12.52;;;7.20;;
35969;SDS011;22448;51.298;6.430;2023-06-14T01:51:12;14.95;;;7.28;;
35969;SDS011;22448;51.298;6.430;2023-06-14T01:53:41;16.35;;;7.93;;
35969;SDS011;22448;51.298;6.430;2023-06-14T01:56:09;12.43;;;7.93;;
35969;SDS011;22448;51.298;6.430;2023-06-14T01:58:36;13.48;;;7.25;;
35969;SDS011;22448;51.298;6.430;2023-06-14T02:01:03;14.15;;;7.40;;
35969;SDS011;22448;51.298;6.430;2023-06-14T02:03:31;16.00;;;7.88;;
35969;SDS011;22448;51.298;6.430;2023-06-14T02:05:59;15.48;;;7.30;;
35969;SDS011;22448;51.298;6.430;2023-06-14T02:08:26;12.45;;;6.97;;
35969;SDS011;22448;51.298;6.430;2023-06-14T02:10:54;11.75;;;7.90;;
35969;SDS011;22448;51.298;6.430;2023-06-14T02:13:21;13.50;;;7.22;;
35969;SDS011;22448;51.298;6.430;2023-06-14T02:15:49;16.15;;;7.78;;
35969;SDS011;22448;51.298;6.430;2023-06-14T02:18:20;13.85;;;8.05;;
35969;SDS011;22448;51.298;6.430;2023-06-14T02:20:48;14.90;;;6.97;;
35969;SDS011;22448;51.298;6.430;2023-06-14T02:23:15;13.95;;;7.18;;
35969;SDS011;22448;51.298;6.430;2023-06-14T02:25:42;14.50;;;7.55;;
35969;SDS011;22448;51.298;6.430;2023-06-14T02:28:11;12.95;;;7.25;;
35969;SDS011;22448;51.298;6.430;2023-06-14T02:30:38;13.10;;;7.75;;
35969;SDS011;22448;51.298;6.430;2023-06-14T02:33:06;13.88;;;7.57;;
35969;SDS011;22448;51.298;6.430;2023-06-14T02:35:34;15.18;;;7.40;;
35969;SDS011;22448;51.298;6.430;2023-06-14T02:38:01;10.20;;;6.38;;
35969;SDS011;22448;51.298;6.430;2023-06-14T02:40:28;17.65;;;6.70;;
35969;SDS011;22448;51.298;6.430;2023-06-14T02:42:55;15.02;;;7.25;;
35969;SDS011;22448;51.298;6.430;2023-06-14T02:45:22;14.85;;;7.40;;
35969;SDS011;22448;51.298;6.430;2023-06-14T02:47:49;14.65;;;7.07;;
35969;SDS011;22448;51.298;6.430;2023-06-14T02:50:18;12.52;;;7.25;;
35969;SDS011;22448;51.298;6.430;2023-06-14T02:52:45;10.25;;;7.28;;
35969;SDS011;22448;51.298;6.430;2023-06-14T02:55:12;10.48;;;7.05;;
35969;SDS011;22448;51.298;6.430;2023-06-14T02:57:39;14.38;;;7.20;;
35969;SDS011;22448;51.298;6.430;2023-06-14T03:00:08;13.18;;;7.30;;
35969;SDS011;22448;51.298;6.430;2023-06-14T03:02:42;11.90;;;6.93;;
35969;SDS011;22448;51.298;6.430;2023-06-14T03:05:10;12.85;;;8.05;;
35969;SDS011;22448;51.298;6.430;2023-06-14T03:07:38;13.50;;;7.80;;
35969;SDS011;22448;51.298;6.430;2023-06-14T03:10:08;12.50;;;7.07;;
35969;SDS011;22448;51.298;6.430;2023-06-14T03:12:39;13.53;;;8.17;;
35969;SDS011;22448;51.298;6.430;2023-06-14T03:15:09;16.35;;;7.60;;
35969;SDS011;22448;51.298;6.430;2023-06-14T03:17:40;12.52;;;7.55;;
35969;SDS011;22448;51.298;6.430;2023-06-14T03:20:13;15.25;;;8.02;;
35969;SDS011;22448;51.298;6.430;2023-06-14T03:22:41;23.40;;;7.75;;
35969;SDS011;22448;51.298;6.430;2023-06-14T03:25:12;14.95;;;8.23;;
35969;SDS011;22448;51.298;6.430;2023-06-14T03:27:41;15.85;;;7.97;;
35969;SDS011;22448;51.298;6.430;2023-06-14T03:30:08;13.98;;;7.55;;
35969;SDS011;22448;51.298;6.430;2023-06-14T03:32:36;21.92;;;8.65;;
35969;SDS011;22448;51.298;6.430;2023-06-14T03:35:04;17.85;;;7.55;;
35969;SDS011;22448;51.298;6.430;2023-06-14T03:37:32;13.85;;;7.53;;
35969;SDS011;22448;51.298;6.430;2023-06-14T03:39:59;15.00;;;7.30;;
35969;SDS011;22448;51.298;6.430;2023-06-14T03:42:30;18.08;;;7.38;;
35969;SDS011;22448;51.298;6.430;2023-06-14T03:44:57;13.25;;;7.72;;
35969;SDS011;22448;51.298;6.430;2023-06-14T03:47:24;17.38;;;7.95;;
35969;SDS011;22448;51.298;6.430;2023-06-14T03:49:51;18.88;;;7.50;;
35969;SDS011;22448;51.298;6.430;2023-06-14T03:52:19;22.48;;;8.25;;
35969;SDS011;22448;51.298;6.430;2023-06-14T03:54:47;17.38;;;7.43;;
35969;SDS011;22448;51.298;6.430;2023-06-14T03:57:18;11.68;;;7.43;;
35969;SDS011;22448;51.298;6.430;2023-06-14T03:59:47;16.15;;;8.07;;
35969;SDS011;22448;51.298;6.430;2023-06-14T04:02:15;13.13;;;7.30;;
35969;SDS011;22448;51.298;6.430;2023-06-14T04:04:43;11.98;;;7.30;;
35969;SDS011;22448;51.298;6.430;2023-06-14T04:07:12;15.40;;;7.90;;
35969;SDS011;22448;51.298;6.430;2023-06-14T04:09:39;15.00;;;7.65;;
35969;SDS011;22448;51.298;6.430;2023-06-14T04:12:07;12.43;;;7.18;;
35969;SDS011;22448;51.298;6.430;2023-06-14T04:14:39;19.25;;;7.57;;
35969;SDS011;22448;51.298;6.430;2023-06-14T04:17:08;19.48;;;7.40;;
35969;SDS011;22448;51.298;6.430;2023-06-14T04:19:37;12.90;;;7.55;;
35969;SDS011;22448;51.298;6.430;2023-06-14T04:22:04;14.38;;;7.75;;
35969;SDS011;22448;51.298;6.430;2023-06-14T04:24:34;17.30;;;7.88;;
35969;SDS011;22448;51.298;6.430;2023-06-14T04:27:01;15.05;;;7.40;;
35969;SDS011;22448;51.298;6.430;2023-06-14T04:29:29;18.00;;;8.20;;
35969;SDS011;22448;51.298;6.430;2023-06-14T04:32:04;17.00;;;6.88;;
35969;SDS011;22448;51.298;6.430;2023-06-14T04:34:32;21.75;;;7.70;;
35969;SDS011;22448;51.298;6.430;2023-06-14T04:37:01;16.42;;;7.32;;
35969;SDS011;22448;51.298;6.430;2023-06-14T04:39:31;13.55;;;6.85;;
35969;SDS011;22448;51.298;6.430;2023-06-14T04:42:00;14.77;;;7.88;;
35969;SDS011;22448;51.298;6.430;2023-06-14T04:44:32;16.88;;;6.93;;
35969;SDS011;22448;51.298;6.430;2023-06-14T04:47:01;11.43;;;7.03;;
35969;SDS011;22448;51.298;6.430;2023-06-14T04:49:28;13.32;;;6.70;;
35969;SDS011;22448;51.298;6.430;2023-06-14T04:51:58;13.52;;;6.97;;
35969;SDS011;22448;51.298;6.430;2023-06-14T04:54:38;17.27;;;6.82;;
35969;SDS011;22448;51.298;6.430;2023-06-14T04:57:11;19.83;;;6.72;;
35969;SDS011;22448;51.298;6.430;2023-06-14T04:59:46;23.10;;;6.85;;
35969;SDS011;22448;51.298;6.430;2023-06-14T05:02:13;17.08;;;6.82;;
35969;SDS011;22448;51.298;6.430;2023-06-14T05:04:40;16.65;;;6.82;;
35969;SDS011;22448;51.298;6.430;2023-06-14T05:07:07;22.13;;;6.70;;
35969;SDS011;22448;51.298;6.430;2023-06-14T05:09:36;24.48;;;6.32;;
35969;SDS011;22448;51.298;6.430;2023-06-14T05:12:03;17.35;;;6.20;;
35969;SDS011;22448;51.298;6.430;2023-06-14T05:14:30;16.35;;;6.50;;
35969;SDS011;22448;51.298;6.430;2023-06-14T05:16:58;14.02;;;6.32;;
35969;SDS011;22448;51.298;6.430;2023-06-14T05:19:25;14.40;;;5.82;;
35969;SDS011;22448;51.298;6.430;2023-06-14T05:21:53;16.55;;;5.65;;
35969;SDS011;22448;51.298;6.430;2023-06-14T05:24:20;12.88;;;5.75;;
35969;SDS011;22448;51.298;6.430;2023-06-14T05:26:47;12.90;;;4.97;;
35969;SDS011;22448;51.298;6.430;2023-06-14T05:29:15;18.10;;;5.47;;
35969;SDS011;22448;51.298;6.430;2023-06-14T05:31:42;20.35;;;6.07;;
35969;SDS011;22448;51.298;6.430;2023-06-14T05:34:09;23.98;;;7.00;;
35969;SDS011;22448;51.298;6.430;2023-06-14T05:36:36;22.80;;;6.15;;
35969;SDS011;22448;51.298;6.430;2023-06-14T05:39:03;14.05;;;4.88;;
35969;SDS011;22448;51.298;6.430;2023-06-14T05:41:32;12.93;;;4.93;;
35969;SDS011;22448;51.298;6.430;2023-06-14T05:43:59;13.82;;;4.97;;
35969;SDS011;22448;51.298;6.430;2023-06-14T05:46:27;19.40;;;4.65;;
35969;SDS011;22448;51.298;6.430;2023-06-14T05:48:55;8.20;;;4.22;;
35969;SDS011;22448;51.298;6.430;2023-06-14T05:51:22;8.68;;;4.15;;
35969;SDS011;22448;51.298;6.430;2023-06-14T05:53:51;28.15;;;4.50;;
35969;SDS011;22448;51.298;6.430;2023-06-14T05:56:18;12.95;;;4.05;;
35969;SDS011;22448;51.298;6.430;2023-06-14T05:58:45;9.13;;;4.25;;
35969;SDS011;22448;51.298;6.430;2023-06-14T06:01:14;12.18;;;4.68;;
35969;SDS011;22448;51.298;6.430;2023-06-14T06:03:41;8.48;;;4.20;;
35969;SDS011;22448;51.298;6.430;2023-06-14T06:06:13;11.00;;;4.65;;
35969;SDS011;22448;51.298;6.430;2023-06-14T06:08:40;8.48;;;4.47;;
35969;SDS011;22448;51.298;6.430;2023-06-14T06:11:07;6.97;;;4.10;;
35969;SDS011;22448;51.298;6.430;2023-06-14T06:13:34;10.13;;;3.97;;
35969;SDS011;22448;51.298;6.430;2023-06-14T06:16:02;9.55;;;3.83;;
35969;SDS011;22448;51.298;6.430;2023-06-14T06:18:29;11.77;;;4.28;;
35969;SDS011;22448;51.298;6.430;2023-06-14T06:20:57;10.60;;;4.45;;
35969;SDS011;22448;51.298;6.430;2023-06-14T06:23:24;10.60;;;3.92;;
35969;SDS011;22448;51.298;6.430;2023-06-14T06:25:51;14.43;;;4.47;;
35969;SDS011;22448;51.298;6.430;2023-06-14T06:28:18;14.80;;;4.35;;
35969;SDS011;22448;51.298;6.430;2023-06-14T06:30:45;10.23;;;4.20;;
35969;SDS011;22448;51.298;6.430;2023-06-14T06:33:12;8.82;;;3.85;;
35969;SDS011;22448;51.298;6.430;2023-06-14T06:35:40;11.10;;;3.83;;
35969;SDS011;22448;51.298;6.430;2023-06-14T06:38:07;10.20;;;3.83;;
35969;SDS011;22448;51.298;6.430;2023-06-14T06:40:36;10.15;;;3.70;;
35969;SDS011;22448;51.298;6.430;2023-06-14T06:43:03;12.80;;;3.90;;
35969;SDS011;22448;51.298;6.430;2023-06-14T06:45:38;8.63;;;3.50;;
35969;SDS011;22448;51.298;6.430;2023-06-14T06:48:06;6.57;;;3.60;;
35969;SDS011;22448;51.298;6.430;2023-06-14T06:51:12;12.23;;;3.13;;
35969;SDS011;22448;51.298;6.430;2023-06-14T06:53:41;11.45;;;3.75;;
35969;SDS011;22448;51.298;6.430;2023-06-14T06:56:14;8.63;;;3.65;;
35969;SDS011;22448;51.298;6.430;2023-06-14T06:58:42;4.38;;;3.05;;
35969;SDS011;22448;51.298;6.430;2023-06-14T07:01:09;7.13;;;3.40;;
35969;SDS011;22448;51.298;6.430;2023-06-14T07:03:36;13.35;;;3.30;;
35969;SDS011;22448;51.298;6.430;2023-06-14T07:06:03;10.15;;;3.45;;
35969;SDS011;22448;51.298;6.430;2023-06-14T07:08:30;4.68;;;2.60;;
35969;SDS011;22448;51.298;6.430;2023-06-14T07:10:57;5.10;;;2.70;;
35969;SDS011;22448;51.298;6.430;2023-06-14T07:13:27;12.73;;;2.80;;
35969;SDS011;22448;51.298;6.430;2023-06-14T07:15:54;8.80;;;3.15;;
35969;SDS011;22448;51.298;6.430;2023-06-14T07:18:25;14.30;;;3.50;;
35969;SDS011;22448;51.298;6.430;2023-06-14T07:20:53;8.23;;;2.58;;
35969;SDS011;22448;51.298;6.430;2023-06-14T07:23:20;7.78;;;3.33;;
35969;SDS011;22448;51.298;6.430;2023-06-14T07:25:47;7.97;;;2.95;;
35969;SDS011;22448;51.298;6.430;2023-06-14T07:28:15;7.72;;;2.75;;
35969;SDS011;22448;51.298;6.430;2023-06-14T07:30:43;5.85;;;2.50;;
35969;SDS011;22448;51.298;6.430;2023-06-14T07:33:10;8.95;;;3.03;;
35969;SDS011;22448;51.298;6.430;2023-06-14T07:35:39;11.10;;;2.50;;
35969;SDS011;22448;51.298;6.430;2023-06-14T07:38:08;5.82;;;2.03;;
35969;SDS011;22448;51.298;6.430;2023-06-14T07:40:35;5.40;;;2.17;;
35969;SDS011;22448;51.298;6.430;2023-06-14T07:43:02;7.82;;;2.25;;
35969;SDS011;22448;51.298;6.430;2023-06-14T07:45:29;26.70;;;3.20;;
35969;SDS011;22448;51.298;6.430;2023-06-14T07:47:56;8.38;;;2.08;;
35969;SDS011;22448;51.298;6.430;2023-06-14T07:50:24;7.28;;;2.05;;
35969;SDS011;22448;51.298;6.430;2023-06-14T07:52:51;4.50;;;2.00;;
35969;SDS011;22448;51.298;6.430;2023-06-14T07:55:18;7.25;;;2.35;;
35969;SDS011;22448;51.298;6.430;2023-06-14T07:57:45;5.13;;;1.88;;
35969;SDS011;22448;51.298;6.430;2023-06-14T08:00:13;7.70;;;1.98;;
35969;SDS011;22448;51.298;6.430;2023-06-14T08:02:42;11.95;;;2.53;;
35969;SDS011;22448;51.298;6.430;2023-06-14T08:05:10;4.38;;;2.60;;
35969;SDS011;22448;51.298;6.430;2023-06-14T08:07:38;2.85;;;1.73;;
35969;SDS011;22448;51.298;6.430;2023-06-14T08:10:08;4.55;;;1.77;;
35969;SDS011;22448;51.298;6.430;2023-06-14T08:12:38;4.38;;;1.80;;
35969;SDS011;22448;51.298;6.430;2023-06-14T08:15:05;10.07;;;2.17;;
35969;SDS011;22448;51.298;6.430;2023-06-14T08:17:40;9.23;;;2.25;;
35969;SDS011;22448;51.298;6.430;2023-06-14T08:20:08;6.25;;;1.80;;
35969;SDS011;22448;51.298;6.430;2023-06-14T08:22:36;4.30;;;1.80;;
35969;SDS011;22448;51.298;6.430;2023-06-14T08:25:03;8.55;;;2.20;;
35969;SDS011;22448;51.298;6.430;2023-06-14T08:27:31;6.00;;;1.98;;
35969;SDS011;22448;51.298;6.430;2023-06-14T08:29:58;6.53;;;1.85;;
35969;SDS011;22448;51.298;6.430;2023-06-14T08:32:25;3.85;;;1.90;;
35969;SDS011;22448;51.298;6.430;2023-06-14T08:34:52;7.90;;;1.98;;
35969;SDS011;22448;51.298;6.430;2023-06-14T08:37:31;5.10;;;2.15;;
35969;SDS011;22448;51.298;6.430;2023-06-14T08:40:00;4.65;;;1.67;;
35969;SDS011;22448;51.298;6.430;2023-06-14T08:42:30;6.68;;;1.90;;
35969;SDS011;22448;51.298;6.430;2023-06-14T08:44:59;4.97;;;1.70;;
35969;SDS011;22448;51.298;6.430;2023-06-14T08:47:27;2.80;;;1.92;;
35969;SDS011;22448;51.298;6.430;2023-06-14T08:49:55;6.53;;;2.15;;
35969;SDS011;22448;51.298;6.430;2023-06-14T08:52:25;4.15;;;2.10;;
35969;SDS011;22448;51.298;6.430;2023-06-14T08:54:56;14.30;;;2.22;;
35969;SDS011;22448;51.298;6.430;2023-06-14T08:57:24;7.13;;;2.20;;
35969;SDS011;22448;51.298;6.430;2023-06-14T08:59:51;6.45;;;2.33;;
35969;SDS011;22448;51.298;6.430;2023-06-14T09:02:20;6.30;;;1.77;;
35969;SDS011;22448;51.298;6.430;2023-06-14T09:04:48;4.80;;;2.13;;
35969;SDS011;22448;51.298;6.430;2023-06-14T09:07:18;6.15;;;2.13;;
35969;SDS011;22448;51.298;6.430;2023-06-14T09:09:45;7.03;;;2.30;;
35969;SDS011;22448;51.298;6.430;2023-06-14T09:12:31;6.75;;;1.98;;
35969;SDS011;22448;51.298;6.430;2023-06-14T09:14:58;9.68;;;2.20;;
35969;SDS011;22448;51.298;6.430;2023-06-14T09:17:26;10.18;;;2.40;;
35969;SDS011;22448;51.298;6.430;2023-06-14T09:19:55;10.15;;;2.40;;
35969;SDS011;22448;51.298;6.430;2023-06-14T09:22:22;8.15;;;2.53;;
35969;SDS011;22448;51.298;6.430;2023-06-14T09:24:48;6.68;;;2.10;;
35969;SDS011;22448;51.298;6.430;2023-06-14T09:27:16;36.22;;;4.32;;
35969;SDS011;22448;51.298;6.430;2023-06-14T09:29:43;9.85;;;1.98;;
35969;SDS011;22448;51.298;6.430;2023-06-14T09:32:10;9.13;;;2.40;;
35969;SDS011;22448;51.298;6.430;2023-06-14T09:34:36;4.97;;;2.05;;
35969;SDS011;22448;51.298;6.430;2023-06-14T09:37:03;5.60;;;1.98;;
35969;SDS011;22448;51.298;6.430;2023-06-14T09:39:31;9.57;;;2.60;;
35969;SDS011;22448;51.298;6.430;2023-06-14T09:41:58;6.20;;;1.92;;
35969;SDS011;22448;51.298;6.430;2023-06-14T09:44:25;7.22;;;1.88;;
35969;SDS011;22448;51.298;6.430;2023-06-14T09:46:55;12.90;;;2.17;;
35969;SDS011;22448;51.298;6.430;2023-06-14T09:49:22;12.68;;;2.58;;
35969;SDS011;22448;51.298;6.430;2023-06-14T09:51:52;7.10;;;2.22;;
35969;SDS011;22448;51.298;6.430;2023-06-14T09:54:22;5.47;;;2.58;;
35969;SDS011;22448;51.298;6.430;2023-06-14T09:56:49;14.25;;;2.53;;
35969;SDS011;22448;51.298;6.430;2023-06-14T09:59:21;14.55;;;2.70;;
35969;SDS011;22448;51.298;6.430;2023-06-14T10:01:57;10.27;;;2.53;;
35969;SDS011;22448;51.298;6.430;2023-06-14T10:04:27;6.38;;;2.28;;
35969;SDS011;22448;51.298;6.430;2023-06-14T10:06:56;9.40;;;3.05;;
35969;SDS011;22448;51.298;6.430;2023-06-14T10:09:23;9.30;;;2.75;;
35969;SDS011;22448;51.298;6.430;2023-06-14T10:11:51;11.57;;;2.75;;
35969;SDS011;22448;51.298;6.430;2023-06-14T10:14:18;12.13;;;2.72;;
35969;SDS011;22448;51.298;6.430;2023-06-14T10:19:24;10.55;;;2.97;;
35969;SDS011;22448;51.298;6.430;2023-06-14T10:22:01;10.85;;;2.40;;
35969;SDS011;22448;51.298;6.430;2023-06-14T10:24:59;8.45;;;2.67;;
35969;SDS011;22448;51.298;6.430;2023-06-14T10:27:27;4.97;;;2.30;;
35969;SDS011;22448;51.298;6.430;2023-06-14T10:32:22;7.35;;;2.30;;
35969;SDS011;22448;51.298;6.430;2023-06-14T10:37:26;5.47;;;1.88;;
35969;SDS011;22448;51.298;6.430;2023-06-14T10:39:54;10.38;;;2.33;;
35969;SDS011;22448;51.298;6.430;2023-06-14T10:42:21;8.95;;;2.17;;
35969;SDS011;22448;51.298;6.430;2023-06-14T10:44:54;5.75;;;2.15;;
35969;SDS011;22448;51.298;6.430;2023-06-14T10:47:26;8.15;;;1.90;;
35969;SDS011;22448;51.298;6.430;2023-06-14T10:52:42;5.30;;;1.70;;
35969;SDS011;22448;51.298;6.430;2023-06-14T10:55:18;9.75;;;1.95;;
35969;SDS011;22448;51.298;6.430;2023-06-14T10:57:52;5.95;;;2.30;;
35969;SDS011;22448;51.298;6.430;2023-06-14T11:00:25;13.75;;;2.05;;
35969;SDS011;22448;51.298;6.430;2023-06-14T11:05:57;5.80;;;1.88;;
35969;SDS011;22448;51.298;6.430;2023-06-14T11:11:32;7.38;;;2.70;;
35969;SDS011;22448;51.298;6.430;2023-06-14T11:14:02;11.55;;;2.25;;
35969;SDS011;22448;51.298;6.430;2023-06-14T11:16:30;11.02;;;1.75;;
35969;SDS011;22448;51.298;6.430;2023-06-14T11:19:02;10.82;;;2.38;;
35969;SDS011;22448;51.298;6.430;2023-06-14T11:21:31;7.40;;;1.77;;
35969;SDS011;22448;51.298;6.430;2023-06-14T11:24:00;6.35;;;2.55;;
35969;SDS011;22448;51.298;6.430;2023-06-14T11:26:31;5.28;;;2.38;;
35969;SDS011;22448;51.298;6.430;2023-06-14T11:29:01;12.82;;;2.10;;
35969;SDS011;22448;51.298;6.430;2023-06-14T11:31:28;3.78;;;1.70;;
35969;SDS011;22448;51.298;6.430;2023-06-14T11:33:57;6.13;;;1.60;;
35969;SDS011;22448;51.298;6.430;2023-06-14T11:36:28;4.78;;;1.42;;
35969;SDS011;22448;51.298;6.430;2023-06-14T11:39:04;9.43;;;1.73;;
35969;SDS011;22448;51.298;6.430;2023-06-14T11:41:36;4.50;;;1.92;;
35969;SDS011;22448;51.298;6.430;2023-06-14T11:44:05;4.00;;;1.60;;
35969;SDS011;22448;51.298;6.430;2023-06-14T11:46:33;2.55;;;1.50;;
35969;SDS011;22448;51.298;6.430;2023-06-14T11:49:00;8.52;;;2.53;;
35969;SDS011;22448;51.298;6.430;2023-06-14T11:51:34;5.50;;;2.03;;
35969;SDS011;22448;51.298;6.430;2023-06-14T11:54:02;6.25;;;1.52;;
35969;SDS011;22448;51.298;6.430;2023-06-14T11:56:30;3.72;;;1.45;;
35969;SDS011;22448;51.298;6.430;2023-06-14T11:58:59;3.03;;;1.63;;
35969;SDS011;22448;51.298;6.430;2023-06-14T12:01:26;4.43;;;1.55;;
35969;SDS011;22448;51.298;6.430;2023-06-14T12:03:54;6.72;;;1.55;;
35969;SDS011;22448;51.298;6.430;2023-06-14T12:06:28;7.65;;;1.50;;
35969;SDS011;22448;51.298;6.430;2023-06-14T12:09:00;5.43;;;1.30;;
35969;SDS011;22448;51.298;6.430;2023-06-14T12:11:34;7.35;;;1.58;;
35969;SDS011;22448;51.298;6.430;2023-06-14T12:14:05;10.95;;;1.60;;
35969;SDS011;22448;51.298;6.430;2023-06-14T12:16:37;4.95;;;1.33;;
35969;SDS011;22448;51.298;6.430;2023-06-14T12:19:09;6.82;;;1.48;;
35969;SDS011;22448;51.298;6.430;2023-06-14T12:21:37;4.35;;;1.55;;
35969;SDS011;22448;51.298;6.430;2023-06-14T12:24:05;4.88;;;1.45;;
35969;SDS011;22448;51.298;6.430;2023-06-14T12:26:33;2.60;;;1.55;;
35969;SDS011;22448;51.298;6.430;2023-06-14T12:29:05;4.03;;;1.58;;
35969;SDS011;22448;51.298;6.430;2023-06-14T12:31:33;6.93;;;1.85;;
35969;SDS011;22448;51.298;6.430;2023-06-14T12:34:00;9.43;;;1.98;;
35969;SDS011;22448;51.298;6.430;2023-06-14T12:36:28;6.47;;;1.73;;
35969;SDS011;22448;51.298;6.430;2023-06-14T12:38:55;2.72;;;1.48;;
35969;SDS011;22448;51.298;6.430;2023-06-14T12:41:22;7.30;;;1.67;;
35969;SDS011;22448;51.298;6.430;2023-06-14T12:43:51;9.52;;;1.95;;
35969;SDS011;22448;51.298;6.430;2023-06-14T12:46:17;3.15;;;1.10;;
35969;SDS011;22448;51.298;6.430;2023-06-14T12:48:45;3.78;;;1.55;;
35969;SDS011;22448;51.298;6.430;2023-06-14T12:51:12;8.43;;;1.77;;
35969;SDS011;22448;51.298;6.430;2023-06-14T12:53:39;5.05;;;1.65;;
35969;SDS011;22448;51.298;6.430;2023-06-14T12:56:07;5.18;;;1.48;;
35969;SDS011;22448;51.298;6.430;2023-06-14T12:58:34;8.55;;;1.50;;
35969;SDS011;22448;51.298;6.430;2023-06-14T13:01:01;7.82;;;1.70;;
35969;SDS011;22448;51.298;6.430;2023-06-14T13:03:28;9.52;;;1.77;;
35969;SDS011;22448;51.298;6.430;2023-06-14T13:05:55;6.65;;;1.70;;
35969;SDS011;22448;51.298;6.430;2023-06-14T13:08:22;5.45;;;1.60;;
35969;SDS011;22448;51.298;6.430;2023-06-14T13:10:50;4.60;;;1.48;;
35969;SDS011;22448;51.298;6.430;2023-06-14T13:13:18;7.85;;;1.80;;
35969;SDS011;22448;51.298;6.430;2023-06-14T13:15:45;5.03;;;1.55;;
35969;SDS011;22448;51.298;6.430;2023-06-14T13:18:16;11.52;;;1.92;;
35969;SDS011;22448;51.298;6.430;2023-06-14T13:20:43;3.28;;;1.30;;
35969;SDS011;22448;51.298;6.430;2023-06-14T13:23:11;3.78;;;1.73;;
35969;SDS011;22448;51.298;6.430;2023-06-14T13:25:40;4.65;;;1.60;;
35969;SDS011;22448;51.298;6.430;2023-06-14T13:28:07;4.55;;;1.73;;
35969;SDS011;22448;51.298;6.430;2023-06-14T13:30:34;6.32;;;2.15;;
35969;SDS011;22448;51.298;6.430;2023-06-14T13:33:01;8.35;;;1.90;;
35969;SDS011;22448;51.298;6.430;2023-06-14T13:35:28;3.97;;;1.75;;
35969;SDS011;22448;51.298;6.430;2023-06-14T13:37:55;10.50;;;1.55;;
35969;SDS011;22448;51.298;6.430;2023-06-14T13:40:22;4.53;;;1.88;;
35969;SDS011;22448;51.298;6.430;2023-06-14T13:42:49;5.55;;;1.83;;
35969;SDS011;22448;51.298;6.430;2023-06-14T13:45:16;7.55;;;1.80;;
35969;SDS011;22448;51.298;6.430;2023-06-14T13:47:43;8.18;;;1.50;;
35969;SDS011;22448;51.298;6.430;2023-06-14T13:50:11;5.78;;;1.40;;
35969;SDS011;22448;51.298;6.430;2023-06-14T13:52:39;4.03;;;1.90;;
35969;SDS011;22448;51.298;6.430;2023-06-14T13:55:06;7.50;;;1.48;;
35969;SDS011;22448;51.298;6.430;2023-06-14T13:57:34;5.43;;;1.73;;
35969;SDS011;22448;51.298;6.430;2023-06-14T14:00:01;3.72;;;1.27;;
35969;SDS011;22448;51.298;6.430;2023-06-14T14:02:37;9.57;;;2.10;;
35969;SDS011;22448;51.298;6.430;2023-06-14T14:05:06;6.25;;;1.55;;
35969;SDS011;22448;51.298;6.430;2023-06-14T14:07:35;2.72;;;1.45;;
35969;SDS011;22448;51.298;6.430;2023-06-14T14:10:03;12.52;;;1.90;;
35969;SDS011;22448;51.298;6.430;2023-06-14T14:12:30;3.70;;;1.65;;
35969;SDS011;22448;51.298;6.430;2023-06-14T14:14:57;8.18;;;1.98;;
35969;SDS011;22448;51.298;6.430;2023-06-14T14:17:24;10.23;;;2.22;;
35969;SDS011;22448;51.298;6.430;2023-06-14T14:19:51;5.35;;;1.83;;
35969;SDS011;22448;51.298;6.430;2023-06-14T14:22:18;4.70;;;1.40;;
35969;SDS011;22448;51.298;6.430;2023-06-14T14:24:45;3.47;;;1.60;;
35969;SDS011;22448;51.298;6.430;2023-06-14T14:27:13;4.45;;;1.48;;
35969;SDS011;22448;51.298;6.430;2023-06-14T14:29:40;8.27;;;1.80;;
35969;SDS011;22448;51.298;6.430;2023-06-14T14:32:07;3.38;;;1.90;;
35969;SDS011;22448;51.298;6.430;2023-06-14T14:34:37;3.15;;;1.90;;
35969;SDS011;22448;51.298;6.430;2023-06-14T14:37:04;7.03;;;1.67;;
35969;SDS011;22448;51.298;6.430;2023-06-14T14:39:31;2.75;;;1.63;;
35969;SDS011;22448;51.298;6.430;2023-06-14T14:41:58;10.63;;;1.90;;
35969;SDS011;22448;51.298;6.430;2023-06-14T14:44:25;4.80;;;1.70;;
35969;SDS011;22448;51.298;6.430;2023-06-14T14:46:52;2.67;;;1.88;;
35969;SDS011;22448;51.298;6.430;2023-06-14T14:49:19;7.20;;;1.90;;
35969;SDS011;22448;51.298;6.430;2023-06-14T14:51:46;8.43;;;2.00;;
35969;SDS011;22448;51.298;6.430;2023-06-14T14:54:13;2.70;;;1.77;;
35969;SDS011;22448;51.298;6.430;2023-06-14T14:56:40;3.03;;;1.85;;
35969;SDS011;22448;51.298;6.430;2023-06-14T14:59:07;4.60;;;2.35;;
35969;SDS011;22448;51.298;6.430;2023-06-14T15:01:35;4.55;;;1.77;;
35969;SDS011;22448;51.298;6.430;2023-06-14T15:04:02;3.80;;;1.90;;
35969;SDS011;22448;51.298;6.430;2023-06-14T15:06:29;3.67;;;1.80;;
35969;SDS011;22448;51.298;6.430;2023-06-14T15:08:56;3.20;;;1.60;;